KPTS/PTS METAR and TAF weather

Enter ICAO airport designator
Station Type Date Time Source
KPTS METAR 2019/12/06 13:55 UTC NOAA

KPTS 061355Z AUTO 01008G16KT 10SM CLR 03/01 A3023 RMK AO2 T00310006


Station Type Date Time Source
KPTS Decoded METAR 2019/12/06 13:55 UTC NOAA

Station name not available
Dec 06, 2019 - 08:55 AM EST / 2019.12.06 1355 UTC
Wind: from the N (010 degrees) at 9 MPH (8 KT) gusting to 18 MPH (16 KT):0
Visibility: 10 mile(s):0
Sky conditions: clear
Temperature: 37.6 F (3.1 C)
Dew Point: 33.1 F (0.6 C)
Relative Humidity: 83%
Pressure (altimeter): 30.23 in. Hg (1023 hPa)
ob: KPTS 061355Z AUTO 01008G16KT 10SM CLR 03/01 A3023 RMK AO2 T00310006
cycle: 14

Station Type Date Time Source
KPTS TAF UTC NOAA

Error!

Example: see airport list